createdAt,value
2022-11-27T00:02:21.071Z,42.58
2022-11-27T00:06:25.332Z,47.08
2022-11-27T00:10:27.061Z,45.83
2022-11-27T00:14:29.156Z,46.58
2022-11-27T00:18:30.885Z,48.88
2022-11-27T00:22:33.086Z,57.70
2022-11-27T00:26:38.168Z,51.83
2022-11-27T00:30:40.413Z,52.50
2022-11-27T00:34:42.442Z,58.40
2022-11-27T00:38:44.514Z,57.70
2022-11-27T00:42:46.151Z,53.72
2022-11-27T00:46:48.231Z,52.22
2022-11-27T00:50:49.882Z,51.83
2022-11-27T00:54:51.818Z,46.58
2022-11-27T00:58:54.389Z,50.63
2022-11-27T01:02:56.357Z,48.50
2022-11-27T01:06:58.119Z,48.20
2022-11-27T01:11:01.148Z,55.70
2022-11-27T01:15:02.918Z,53.58
2022-11-27T01:19:05.521Z,58.33
2022-11-27T01:23:07.746Z,50.58
2022-11-27T01:27:09.667Z,55.53
2022-11-27T01:31:13.410Z,53.50
2022-11-27T01:35:15.422Z,44.55
2022-11-27T01:39:19.668Z,46.33
2022-11-27T01:43:37.632Z,48.72
2022-11-27T01:47:46.992Z,47.17
2022-11-27T01:51:51.421Z,45.85
2022-11-27T01:55:58.546Z,53.67
2022-11-27T02:00:01.502Z,46.13
2022-11-27T02:04:04.039Z,47.22
2022-11-27T02:08:09.712Z,47.80
2022-11-27T02:12:25.144Z,72.43
2022-11-27T02:16:49.239Z,71.30
2022-11-27T02:21:05.987Z,61.78
2022-11-27T02:25:28.570Z,80.10
2022-11-27T02:29:35.307Z,67.85
2022-11-27T02:33:43.545Z,56.63
2022-11-27T02:37:49.353Z,48.58
2022-11-27T02:41:57.215Z,55.58
2022-11-27T02:46:01.024Z,48.80
2022-11-27T02:50:05.188Z,53.97
2022-11-27T02:54:12.220Z,48.85
2022-11-27T02:58:17.974Z,47.10
2022-11-27T03:02:25.996Z,47.80
2022-11-27T03:06:35.013Z,47.63
2022-11-27T03:10:47.870Z,47.83
2022-11-27T03:14:49.668Z,46.67
2022-11-27T03:19:10.561Z,49.17
2022-11-27T03:23:12.261Z,51.17
2022-11-27T03:27:22.828Z,50.03
2022-11-27T03:31:25.065Z,55.40
2022-11-27T03:35:27.508Z,59.10
2022-11-27T03:39:30.676Z,58.00
2022-11-27T03:43:41.984Z,58.25
2022-11-27T03:48:12.594Z,55.22
2022-11-27T03:52:33.003Z,53.45
2022-11-27T03:56:57.984Z,56.30
2022-11-27T04:01:01.146Z,58.40
2022-11-27T04:05:02.923Z,61.13
2022-11-27T04:09:05.102Z,69.47
2022-11-27T04:13:06.763Z,62.05
2022-11-27T04:17:09.242Z,64.95
2022-11-27T04:21:12.688Z,59.55
2022-11-27T04:25:14.567Z,59.70
2022-11-27T04:29:16.343Z,59.15
2022-11-27T04:33:18.512Z,59.22
2022-11-27T04:37:20.179Z,57.17
2022-11-27T04:41:22.258Z,61.05
2022-11-27T04:45:23.886Z,60.17
2022-11-27T04:49:25.816Z,62.50
2022-11-27T04:53:27.595Z,57.00
2022-11-27T04:57:29.498Z,60.40
2022-11-27T05:01:31.322Z,59.20
2022-11-27T05:05:33.261Z,62.22
2022-11-27T05:09:35.002Z,61.15
2022-11-27T05:13:37.452Z,61.67
2022-11-27T05:17:39.149Z,59.55
2022-11-27T05:21:41.661Z,58.20
2022-11-27T05:25:43.278Z,60.13
2022-11-27T05:29:45.310Z,61.35
2022-11-27T05:33:46.964Z,61.53
2022-11-27T05:37:48.847Z,60.72
2022-11-27T05:41:50.688Z,61.90
2022-11-27T05:45:52.546Z,59.42
2022-11-27T05:49:54.211Z,62.13
2022-11-27T05:53:56.335Z,58.85
2022-11-27T05:57:57.965Z,62.60
2022-11-27T06:01:59.895Z,58.60
2022-11-27T06:06:15.045Z,60.03
2022-11-27T06:10:17.021Z,57.65
2022-11-27T06:14:18.722Z,58.47
2022-11-27T06:18:20.722Z,63.15
2022-11-27T06:22:22.359Z,55.35
2022-11-27T06:26:30.498Z,61.35
2022-11-27T06:30:32.196Z,59.30
2022-11-27T06:34:34.158Z,57.90
2022-11-27T06:38:37.367Z,57.85
2022-11-27T06:42:40.407Z,59.05
2022-11-27T06:46:42.070Z,60.00
2022-11-27T06:50:44.057Z,58.03
2022-11-27T06:54:45.737Z,57.33
2022-11-27T06:58:51.676Z,56.40
2022-11-27T07:02:55.144Z,62.85
2022-11-27T07:06:57.097Z,58.33
2022-11-27T07:11:16.568Z,60.25
2022-11-27T07:15:18.494Z,61.72
2022-11-27T07:19:20.534Z,63.95
2022-11-27T07:23:22.655Z,60.55
2022-11-27T07:27:24.702Z,60.25
2022-11-27T07:31:30.150Z,63.65
2022-11-27T07:35:31.950Z,60.40
2022-11-27T07:40:00.213Z,64.82
2022-11-27T07:43:55.930Z,61.83
2022-11-27T07:47:57.600Z,64.38
2022-11-27T07:51:59.466Z,62.13
2022-11-27T07:56:01.198Z,59.45
2022-11-27T08:00:04.264Z,64.97
2022-11-27T08:04:06.085Z,62.50
2022-11-27T08:08:08.034Z,63.22
2022-11-27T08:12:09.660Z,59.85
2022-11-27T08:16:11.790Z,61.58
2022-11-27T08:20:13.557Z,63.55
2022-11-27T08:24:15.588Z,61.65
2022-11-27T08:28:18.264Z,62.58
2022-11-27T08:32:20.214Z,62.42
2022-11-27T08:36:22.771Z,62.10
2022-11-27T08:40:24.804Z,57.83
2022-11-27T08:44:26.682Z,62.08
2022-11-27T08:48:28.552Z,65.40
2022-11-27T08:52:30.203Z,57.88
2022-11-27T08:56:32.189Z,59.85
2022-11-27T09:00:35.139Z,63.63
2022-11-27T09:04:37.056Z,65.93
2022-11-27T09:08:40.369Z,62.15
2022-11-27T09:12:44.501Z,61.65
2022-11-27T09:16:46.279Z,63.97
2022-11-27T09:20:56.376Z,62.25
2022-11-27T09:24:58.027Z,60.83
2022-11-27T09:29:00.027Z,61.95
2022-11-27T09:33:02.218Z,68.60
2022-11-27T09:37:04.892Z,66.13
2022-11-27T09:41:33.742Z,70.25
2022-11-27T09:49:47.910Z,63.70
2022-11-27T09:53:56.172Z,64.68
2022-11-27T09:58:19.250Z,67.13
2022-11-27T10:02:32.868Z,63.15
2022-11-27T10:06:49.488Z,62.22
2022-11-27T10:11:06.931Z,63.90
2022-11-27T10:15:36.549Z,62.22
2022-11-27T10:19:49.126Z,63.03
2022-11-27T10:24:07.830Z,62.70
2022-11-27T10:28:36.568Z,62.65
2022-11-27T10:32:55.730Z,62.60
2022-11-27T10:37:02.468Z,63.63
2022-11-27T10:41:18.577Z,61.42
2022-11-27T10:45:57.349Z,59.67
2022-11-27T10:49:59.497Z,60.25
2022-11-27T10:54:03.763Z,61.90
2022-11-27T10:58:18.302Z,58.42
2022-11-27T11:02:32.278Z,62.28
2022-11-27T11:06:40.123Z,58.63
2022-11-27T11:10:50.474Z,96.00
2022-11-27T11:14:54.471Z,66.63
2022-11-27T11:18:57.691Z,60.15
2022-11-27T11:22:59.479Z,58.03
2022-11-27T11:27:12.092Z,62.08
2022-11-27T11:31:19.460Z,60.20
2022-11-27T11:35:32.205Z,60.67
2022-11-27T11:39:45.303Z,57.80
2022-11-27T11:43:59.144Z,60.00
2022-11-27T11:48:22.174Z,59.10
2022-11-27T11:52:46.983Z,56.40
2022-11-27T11:56:52.565Z,57.95
2022-11-27T12:01:26.110Z,59.22
2022-11-27T12:05:51.198Z,55.53
2022-11-27T12:10:01.557Z,62.13
2022-11-27T12:14:27.726Z,55.03
2022-11-27T12:18:57.959Z,53.38
2022-11-27T12:23:11.489Z,57.25
2022-11-27T12:27:42.551Z,57.25
2022-11-27T12:32:19.308Z,56.13
2022-11-27T12:36:27.046Z,55.88
2022-11-27T12:40:57.018Z,54.85
2022-11-27T12:45:01.479Z,56.95
2022-11-27T12:49:20.977Z,58.50
2022-11-27T12:53:36.996Z,57.60
2022-11-27T12:58:01.635Z,55.83
2022-11-27T13:02:09.593Z,60.35
2022-11-27T13:06:19.992Z,58.25
2022-11-27T13:10:34.694Z,58.00
2022-11-27T13:14:39.270Z,55.47
2022-11-27T13:18:46.999Z,57.38
2022-11-27T13:22:50.685Z,59.97
2022-11-27T13:27:02.103Z,56.35
2022-11-27T13:31:06.200Z,58.20
2022-11-27T13:35:21.525Z,57.67
2022-11-27T13:39:28.124Z,56.20
2022-11-27T13:43:44.029Z,57.25
2022-11-27T13:47:48.036Z,57.40
2022-11-27T13:51:49.866Z,59.72
2022-11-27T13:55:55.832Z,57.10
2022-11-27T14:00:06.721Z,59.22
2022-11-27T14:04:17.644Z,56.60
2022-11-27T14:08:26.413Z,63.22
2022-11-27T14:12:32.246Z,58.47
2022-11-27T14:16:35.474Z,61.65
2022-11-27T14:20:51.406Z,57.40
2022-11-27T14:24:55.835Z,66.40
2022-11-27T14:29:00.204Z,60.33
2022-11-27T14:33:05.760Z,62.45
2022-11-27T14:37:20.159Z,64.65
2022-11-27T14:41:24.150Z,67.60
2022-11-27T14:45:26.178Z,62.60
2022-11-27T14:49:29.980Z,67.45
2022-11-27T14:53:31.987Z,71.65
2022-11-27T14:57:33.821Z,76.00
2022-11-27T15:01:37.142Z,74.18
2022-11-27T15:05:39.187Z,78.22
2022-11-27T15:09:46.157Z,69.63
2022-11-27T15:13:55.940Z,75.78
2022-11-27T15:18:01.849Z,77.10
2022-11-27T15:22:04.526Z,78.28
2022-11-27T15:26:15.116Z,73.10
2022-11-27T15:30:18.872Z,73.43
2022-11-27T15:34:23.171Z,76.32
2022-11-27T15:38:24.892Z,74.88
2022-11-27T15:42:27.573Z,84.88
2022-11-27T15:46:34.503Z,87.28
2022-11-27T15:50:36.442Z,80.20
2022-11-27T15:54:38.237Z,80.25
2022-11-27T15:58:41.665Z,86.30
2022-11-27T16:02:43.412Z,79.60
2022-11-27T16:06:45.507Z,84.13
2022-11-27T16:10:47.159Z,93.60
2022-11-27T16:14:49.220Z,99.88
2022-11-27T16:18:50.867Z,95.18
2022-11-27T16:22:53.267Z,90.65
2022-11-27T16:26:54.934Z,88.50
2022-11-27T16:30:58.855Z,100.88
2022-11-27T16:35:00.583Z,93.40
2022-11-27T16:39:03.583Z,93.00
2022-11-27T16:43:05.352Z,91.28
2022-11-27T16:47:07.872Z,95.20
2022-11-27T16:51:13.092Z,101.85
2022-11-27T16:55:15.158Z,93.63
2022-11-27T16:59:17.071Z,88.13
2022-11-27T17:03:19.037Z,94.40
2022-11-27T17:07:21.084Z,103.05
2022-11-27T17:11:35.222Z,98.35
2022-11-27T17:15:40.498Z,99.55
2022-11-27T17:19:43.763Z,97.30
2022-11-27T17:23:46.866Z,102.22
2022-11-27T17:27:51.649Z,102.07
2022-11-27T17:31:53.680Z,108.15
2022-11-27T17:35:57.243Z,102.15
2022-11-27T17:39:59.426Z,107.93
2022-11-27T17:44:04.308Z,103.93
2022-11-27T17:48:06.349Z,106.97
2022-11-27T17:52:08.521Z,111.85
2022-11-27T17:56:14.189Z,109.95
2022-11-27T18:00:18.581Z,111.05
2022-11-27T18:04:21.188Z,102.05
2022-11-27T18:08:23.969Z,103.15
2022-11-27T18:12:25.750Z,108.57
2022-11-27T18:16:31.639Z,115.55
2022-11-27T18:20:33.478Z,105.72
2022-11-27T18:24:36.349Z,99.50
2022-11-27T18:28:38.128Z,103.38
2022-11-27T18:32:40.103Z,116.35
2022-11-27T18:36:42.117Z,116.25
2022-11-27T18:40:45.906Z,122.50
2022-11-27T18:44:47.532Z,121.80
2022-11-27T18:48:50.354Z,110.65
2022-11-27T18:52:52.470Z,116.78
2022-11-27T18:56:54.481Z,114.78
2022-11-27T19:00:57.567Z,136.05
2022-11-27T19:04:59.946Z,143.73
2022-11-27T19:09:02.381Z,167.65
2022-11-27T19:13:04.479Z,159.45
2022-11-27T19:17:06.329Z,172.85
2022-11-27T19:21:20.091Z,140.27
2022-11-27T19:25:22.336Z,136.77
2022-11-27T19:29:24.588Z,137.02
2022-11-27T19:33:26.258Z,135.63
2022-11-27T19:37:34.440Z,137.70
2022-11-27T19:41:37.733Z,139.70
2022-11-27T19:45:39.959Z,143.27
2022-11-27T19:49:41.935Z,156.57
2022-11-27T19:53:44.422Z,136.50
2022-11-27T19:57:46.083Z,155.45
2022-11-27T20:01:48.307Z,156.25
2022-11-27T20:05:49.970Z,152.32
2022-11-27T20:09:52.840Z,182.32
2022-11-27T20:13:59.419Z,155.73
2022-11-27T20:18:02.802Z,151.83
2022-11-27T20:22:04.471Z,140.13
2022-11-27T20:26:09.302Z,144.32
2022-11-27T20:30:12.536Z,144.65
2022-11-27T20:34:20.361Z,150.50
2022-11-27T20:38:23.088Z,160.27
2022-11-27T20:42:25.721Z,136.38
2022-11-27T20:46:28.631Z,133.00
2022-11-27T20:50:31.014Z,133.80
2022-11-27T20:54:32.606Z,145.07
2022-11-27T20:58:36.474Z,132.82
2022-11-27T21:02:40.905Z,136.40
2022-11-27T21:06:44.190Z,130.35
2022-11-27T21:10:46.927Z,134.32
2022-11-27T21:14:49.051Z,131.40
2022-11-27T21:18:53.425Z,129.95
2022-11-27T21:22:56.352Z,126.15
2022-11-27T21:26:58.464Z,127.03
2022-11-27T21:31:09.025Z,118.85
2022-11-27T21:35:10.995Z,127.50
2022-11-27T21:39:20.466Z,131.27
2022-11-27T21:43:22.808Z,119.35
2022-11-27T21:47:24.929Z,120.63
2022-11-27T21:51:28.175Z,116.97
2022-11-27T21:55:31.826Z,115.03
2022-11-27T21:59:33.554Z,112.05
2022-11-27T22:03:41.115Z,122.03
2022-11-27T22:07:44.280Z,128.30
2022-11-27T22:11:47.214Z,112.30
2022-11-27T22:15:49.121Z,121.00
2022-11-27T22:19:51.473Z,112.72
2022-11-27T22:23:53.882Z,109.63
2022-11-27T22:27:56.501Z,105.13
2022-11-27T22:31:58.193Z,108.50
2022-11-27T22:36:10.741Z,109.65
2022-11-27T22:40:13.629Z,109.45
2022-11-27T22:44:20.998Z,117.38
2022-11-27T22:48:24.270Z,113.97
2022-11-27T22:52:25.896Z,108.50
2022-11-27T22:56:28.250Z,112.50
2022-11-27T23:00:30.157Z,107.47
2022-11-27T23:04:33.603Z,112.25
2022-11-27T23:08:35.306Z,127.18
2022-11-27T23:12:37.504Z,114.65
2022-11-27T23:16:39.510Z,121.22
2022-11-27T23:20:42.965Z,113.40
2022-11-27T23:24:45.010Z,121.43
2022-11-27T23:28:49.444Z,119.60
2022-11-27T23:32:51.242Z,109.90
2022-11-27T23:36:53.290Z,114.00
2022-11-27T23:40:56.380Z,120.10
2022-11-27T23:44:58.469Z,119.88
2022-11-27T23:49:00.727Z,122.53
2022-11-27T23:53:02.706Z,119.47
2022-11-27T23:57:04.749Z,117.30
